sensor_id;sensor_type;location;lat;lon;timestamp;pressure;altitude;pressure_sealevel;temperature;humidity
53635;BME280;39542;-34.932;138.594;2023-03-25T00:00:23;101449.54;;;22.84;56.94
53635;BME280;39542;-34.932;138.594;2023-03-25T00:00:58;101451.53;;;22.85;56.55
53635;BME280;39542;-34.932;138.594;2023-03-25T00:01:33;101448.33;;;22.86;56.48
53635;BME280;39542;-34.932;138.594;2023-03-25T00:02:07;101447.19;;;22.86;56.26
53635;BME280;39542;-34.932;138.594;2023-03-25T00:02:42;101448.51;;;22.86;56.07
53635;BME280;39542;-34.932;138.594;2023-03-25T00:03:16;101447.34;;;22.85;56.00
53635;BME280;39542;-34.932;138.594;2023-03-25T00:03:52;101447.68;;;22.85;55.98
53635;BME280;39542;-34.932;138.594;2023-03-25T00:04:26;101449.31;;;22.84;55.88
53635;BME280;39542;-34.932;138.594;2023-03-25T00:05:01;101447.50;;;22.85;55.78
53635;BME280;39542;-34.932;138.594;2023-03-25T00:05:40;101445.74;;;22.85;55.85
53635;BME280;39542;-34.932;138.594;2023-03-25T00:06:14;101445.45;;;22.83;56.11
53635;BME280;39542;-34.932;138.594;2023-03-25T00:06:49;101445.26;;;22.83;56.08
53635;BME280;39542;-34.932;138.594;2023-03-25T00:07:24;101443.80;;;22.82;55.92
53635;BME280;39542;-34.932;138.594;2023-03-25T00:07:59;101443.34;;;22.85;55.86
53635;BME280;39542;-34.932;138.594;2023-03-25T00:08:34;101443.39;;;22.87;55.78
53635;BME280;39542;-34.932;138.594;2023-03-25T00:09:08;101441.81;;;22.88;55.77
53635;BME280;39542;-34.932;138.594;2023-03-25T00:09:43;101442.90;;;22.88;55.75
53635;BME280;39542;-34.932;138.594;2023-03-25T00:10:17;101441.38;;;22.85;55.84
53635;BME280;39542;-34.932;138.594;2023-03-25T00:10:55;101442.21;;;22.84;55.94
53635;BME280;39542;-34.932;138.594;2023-03-25T00:11:30;101440.29;;;22.86;55.89
53635;BME280;39542;-34.932;138.594;2023-03-25T00:12:06;101438.45;;;22.89;55.81
53635;BME280;39542;-34.932;138.594;2023-03-25T00:12:41;101437.48;;;22.91;55.85
53635;BME280;39542;-34.932;138.594;2023-03-25T00:13:15;101435.37;;;22.89;55.86
53635;BME280;39542;-34.932;138.594;2023-03-25T00:13:50;101432.88;;;22.87;55.85
53635;BME280;39542;-34.932;138.594;2023-03-25T00:14:25;101432.16;;;22.86;55.78
53635;BME280;39542;-34.932;138.594;2023-03-25T00:14:59;101427.12;;;22.88;55.57
53635;BME280;39542;-34.932;138.594;2023-03-25T00:15:33;101423.99;;;22.87;55.64
53635;BME280;39542;-34.932;138.594;2023-03-25T00:16:09;101421.09;;;22.88;55.59
53635;BME280;39542;-34.932;138.594;2023-03-25T00:16:43;101416.81;;;22.85;55.26
53635;BME280;39542;-34.932;138.594;2023-03-25T00:17:18;101409.92;;;22.85;55.21
53635;BME280;39542;-34.932;138.594;2023-03-25T00:17:52;101407.98;;;22.82;55.29
53635;BME280;39542;-34.932;138.594;2023-03-25T00:18:28;101409.65;;;22.81;54.69
53635;BME280;39542;-34.932;138.594;2023-03-25T00:19:03;101405.46;;;22.84;54.64
53635;BME280;39542;-34.932;138.594;2023-03-25T00:19:38;101402.26;;;22.85;54.51
53635;BME280;39542;-34.932;138.594;2023-03-25T00:20:13;101397.36;;;22.85;54.84
53635;BME280;39542;-34.932;138.594;2023-03-25T00:20:48;101399.61;;;22.84;54.80
53635;BME280;39542;-34.932;138.594;2023-03-25T00:21:23;101402.17;;;22.82;54.79
53635;BME280;39542;-34.932;138.594;2023-03-25T00:21:58;101399.76;;;22.84;54.71
53635;BME280;39542;-34.932;138.594;2023-03-25T00:22:33;101401.69;;;22.85;54.39
53635;BME280;39542;-34.932;138.594;2023-03-25T00:23:07;101405.76;;;22.86;54.52
53635;BME280;39542;-34.932;138.594;2023-03-25T00:23:42;101408.10;;;22.87;54.37
53635;BME280;39542;-34.932;138.594;2023-03-25T00:24:17;101407.83;;;22.85;54.43
53635;BME280;39542;-34.932;138.594;2023-03-25T00:24:52;101410.80;;;22.85;54.43
53635;BME280;39542;-34.932;138.594;2023-03-25T00:25:27;101410.28;;;22.85;54.45
53635;BME280;39542;-34.932;138.594;2023-03-25T00:26:02;101411.68;;;22.84;54.36
53635;BME280;39542;-34.932;138.594;2023-03-25T00:26:36;101414.21;;;22.85;54.24
53635;BME280;39542;-34.932;138.594;2023-03-25T00:27:11;101414.27;;;22.84;54.20
53635;BME280;39542;-34.932;138.594;2023-03-25T00:27:47;101416.21;;;22.83;54.15
53635;BME280;39542;-34.932;138.594;2023-03-25T00:28:21;101411.30;;;22.83;54.19
53635;BME280;39542;-34.932;138.594;2023-03-25T00:28:55;101413.06;;;22.86;54.13
53635;BME280;39542;-34.932;138.594;2023-03-25T00:29:30;101419.39;;;22.85;54.23
53635;BME280;39542;-34.932;138.594;2023-03-25T00:30:05;101420.55;;;22.86;54.19
53635;BME280;39542;-34.932;138.594;2023-03-25T00:30:41;101427.27;;;22.86;54.23
53635;BME280;39542;-34.932;138.594;2023-03-25T00:31:16;101428.65;;;22.83;54.32
53635;BME280;39542;-34.932;138.594;2023-03-25T00:31:50;101434.70;;;22.81;54.37
53635;BME280;39542;-34.932;138.594;2023-03-25T00:32:25;101438.47;;;22.84;54.32
53635;BME280;39542;-34.932;138.594;2023-03-25T00:32:59;101444.73;;;22.82;54.31
53635;BME280;39542;-34.932;138.594;2023-03-25T00:33:33;101448.53;;;22.82;54.37
53635;BME280;39542;-34.932;138.594;2023-03-25T00:34:08;101450.34;;;22.81;54.30
53635;BME280;39542;-34.932;138.594;2023-03-25T00:34:44;101454.03;;;22.82;54.33
53635;BME280;39542;-34.932;138.594;2023-03-25T00:35:18;101458.71;;;22.81;54.41
53635;BME280;39542;-34.932;138.594;2023-03-25T00:35:54;101455.20;;;22.83;54.36
53635;BME280;39542;-34.932;138.594;2023-03-25T00:36:28;101456.60;;;22.83;54.38
53635;BME280;39542;-34.932;138.594;2023-03-25T00:37:03;101458.29;;;22.82;54.40
53635;BME280;39542;-34.932;138.594;2023-03-25T00:37:37;101456.65;;;22.82;54.36
53635;BME280;39542;-34.932;138.594;2023-03-25T00:38:13;101461.39;;;22.80;54.43
53635;BME280;39542;-34.932;138.594;2023-03-25T00:38:49;101462.49;;;22.81;54.43
53635;BME280;39542;-34.932;138.594;2023-03-25T00:39:23;101464.72;;;22.88;54.33
53635;BME280;39542;-34.932;138.594;2023-03-25T00:39:57;101469.67;;;22.89;54.24
53635;BME280;39542;-34.932;138.594;2023-03-25T00:40:33;101471.69;;;22.84;54.33
53635;BME280;39542;-34.932;138.594;2023-03-25T00:41:13;101470.29;;;22.81;54.36
53635;BME280;39542;-34.932;138.594;2023-03-25T00:41:47;101471.63;;;22.82;54.37
53635;BME280;39542;-34.932;138.594;2023-03-25T00:42:22;101473.36;;;22.85;54.33
53635;BME280;39542;-34.932;138.594;2023-03-25T00:42:57;101471.27;;;22.86;54.22
53635;BME280;39542;-34.932;138.594;2023-03-25T00:43:31;101472.35;;;22.83;54.15
53635;BME280;39542;-34.932;138.594;2023-03-25T00:44:07;101471.64;;;22.83;54.10
53635;BME280;39542;-34.932;138.594;2023-03-25T00:44:43;101468.79;;;22.86;54.19
53635;BME280;39542;-34.932;138.594;2023-03-25T00:45:18;101466.62;;;22.86;54.15
53635;BME280;39542;-34.932;138.594;2023-03-25T00:45:56;101464.06;;;22.86;54.03
53635;BME280;39542;-34.932;138.594;2023-03-25T00:46:32;101464.97;;;22.85;54.00
53635;BME280;39542;-34.932;138.594;2023-03-25T00:47:07;101463.23;;;22.86;54.03
53635;BME280;39542;-34.932;138.594;2023-03-25T00:47:41;101460.75;;;22.85;54.10
53635;BME280;39542;-34.932;138.594;2023-03-25T00:48:16;101457.30;;;22.83;54.01
53635;BME280;39542;-34.932;138.594;2023-03-25T00:48:51;101454.86;;;22.90;53.90
53635;BME280;39542;-34.932;138.594;2023-03-25T00:49:26;101452.50;;;22.91;53.90
53635;BME280;39542;-34.932;138.594;2023-03-25T00:50:00;101446.19;;;22.90;54.05
53635;BME280;39542;-34.932;138.594;2023-03-25T00:50:34;101440.68;;;22.88;53.91
53635;BME280;39542;-34.932;138.594;2023-03-25T00:51:09;101434.68;;;22.83;53.99
53635;BME280;39542;-34.932;138.594;2023-03-25T00:51:44;101431.05;;;22.82;53.94
53635;BME280;39542;-34.932;138.594;2023-03-25T00:52:19;101421.28;;;22.85;53.89
53635;BME280;39542;-34.932;138.594;2023-03-25T00:52:54;101419.77;;;22.86;53.80
53635;BME280;39542;-34.932;138.594;2023-03-25T00:53:28;101417.14;;;22.88;53.74
53635;BME280;39542;-34.932;138.594;2023-03-25T00:54:02;101415.26;;;22.88;53.72
53635;BME280;39542;-34.932;138.594;2023-03-25T00:54:37;101414.42;;;22.89;53.68
53635;BME280;39542;-34.932;138.594;2023-03-25T00:55:12;101415.27;;;22.89;53.61
53635;BME280;39542;-34.932;138.594;2023-03-25T00:55:49;101418.32;;;22.89;53.57
53635;BME280;39542;-34.932;138.594;2023-03-25T00:56:25;101419.49;;;22.88;53.50
53635;BME280;39542;-34.932;138.594;2023-03-25T00:56:59;101420.23;;;22.87;53.50
53635;BME280;39542;-34.932;138.594;2023-03-25T00:57:34;101421.63;;;22.89;53.51
53635;BME280;39542;-34.932;138.594;2023-03-25T00:58:09;101425.92;;;22.87;53.50
53635;BME280;39542;-34.932;138.594;2023-03-25T00:58:45;101430.81;;;22.84;53.57
53635;BME280;39542;-34.932;138.594;2023-03-25T00:59:19;101429.96;;;22.89;53.43
53635;BME280;39542;-34.932;138.594;2023-03-25T00:59:54;101429.96;;;22.90;53.38
53635;BME280;39542;-34.932;138.594;2023-03-25T01:00:28;101430.37;;;22.89;53.38
53635;BME280;39542;-34.932;138.594;2023-03-25T01:01:09;101429.23;;;22.91;53.41
53635;BME280;39542;-34.932;138.594;2023-03-25T01:01:43;101428.18;;;22.89;53.46
53635;BME280;39542;-34.932;138.594;2023-03-25T01:02:17;101426.77;;;22.88;53.49
53635;BME280;39542;-34.932;138.594;2023-03-25T01:02:52;101428.88;;;22.89;53.36
53635;BME280;39542;-34.932;138.594;2023-03-25T01:03:28;101426.19;;;22.89;53.40
53635;BME280;39542;-34.932;138.594;2023-03-25T01:04:02;101430.70;;;22.87;53.43
53635;BME280;39542;-34.932;138.594;2023-03-25T01:04:38;101427.18;;;22.86;53.45
53635;BME280;39542;-34.932;138.594;2023-03-25T01:05:13;101430.99;;;22.84;53.55
53635;BME280;39542;-34.932;138.594;2023-03-25T01:05:47;101436.17;;;22.86;53.42
53635;BME280;39542;-34.932;138.594;2023-03-25T01:06:22;101437.99;;;22.86;53.42
53635;BME280;39542;-34.932;138.594;2023-03-25T01:06:57;101439.03;;;22.87;53.37
53635;BME280;39542;-34.932;138.594;2023-03-25T01:07:31;101443.53;;;22.85;53.42
53635;BME280;39542;-34.932;138.594;2023-03-25T01:08:06;101445.80;;;22.85;53.44
53635;BME280;39542;-34.932;138.594;2023-03-25T01:08:44;101448.23;;;22.84;53.46
53635;BME280;39542;-34.932;138.594;2023-03-25T01:09:19;101447.22;;;22.85;53.47
53635;BME280;39542;-34.932;138.594;2023-03-25T01:09:54;101451.22;;;22.85;53.50
53635;BME280;39542;-34.932;138.594;2023-03-25T01:10:28;101451.95;;;22.87;53.41
53635;BME280;39542;-34.932;138.594;2023-03-25T01:11:03;101452.78;;;22.88;53.36
53635;BME280;39542;-34.932;138.594;2023-03-25T01:11:38;101451.49;;;22.88;53.35
53635;BME280;39542;-34.932;138.594;2023-03-25T01:12:14;101452.11;;;22.87;53.43
53635;BME280;39542;-34.932;138.594;2023-03-25T01:12:49;101450.67;;;22.85;53.51
53635;BME280;39542;-34.932;138.594;2023-03-25T01:13:24;101451.02;;;22.88;53.39
53635;BME280;39542;-34.932;138.594;2023-03-25T01:13:59;101452.54;;;22.88;53.42
53635;BME280;39542;-34.932;138.594;2023-03-25T01:14:34;101451.76;;;22.85;53.35
53635;BME280;39542;-34.932;138.594;2023-03-25T01:15:11;101451.72;;;22.88;53.23
53635;BME280;39542;-34.932;138.594;2023-03-25T01:15:46;101451.79;;;22.88;53.26
53635;BME280;39542;-34.932;138.594;2023-03-25T01:16:21;101450.93;;;22.87;53.20
53635;BME280;39542;-34.932;138.594;2023-03-25T01:16:57;101452.74;;;22.90;53.05
53635;BME280;39542;-34.932;138.594;2023-03-25T01:17:31;101453.88;;;22.88;53.06
53635;BME280;39542;-34.932;138.594;2023-03-25T01:18:06;101454.16;;;22.86;53.02
53635;BME280;39542;-34.932;138.594;2023-03-25T01:18:41;101457.24;;;22.84;53.04
53635;BME280;39542;-34.932;138.594;2023-03-25T01:19:17;101456.61;;;22.82;53.11
53635;BME280;39542;-34.932;138.594;2023-03-25T01:19:51;101457.01;;;22.87;53.15
53635;BME280;39542;-34.932;138.594;2023-03-25T01:20:26;101458.66;;;22.90;52.98
53635;BME280;39542;-34.932;138.594;2023-03-25T01:21:00;101457.22;;;22.92;52.99
53635;BME280;39542;-34.932;138.594;2023-03-25T01:21:34;101456.87;;;22.89;53.02
53635;BME280;39542;-34.932;138.594;2023-03-25T01:22:09;101460.53;;;22.86;53.07
53635;BME280;39542;-34.932;138.594;2023-03-25T01:22:44;101458.22;;;22.84;53.17
53635;BME280;39542;-34.932;138.594;2023-03-25T01:23:18;101459.17;;;22.85;53.06
53635;BME280;39542;-34.932;138.594;2023-03-25T01:23:54;101458.56;;;22.87;53.01
53635;BME280;39542;-34.932;138.594;2023-03-25T01:24:28;101461.57;;;22.89;52.97
53635;BME280;39542;-34.932;138.594;2023-03-25T01:25:03;101462.51;;;22.88;53.05
53635;BME280;39542;-34.932;138.594;2023-03-25T01:25:38;101461.90;;;22.89;52.93
53635;BME280;39542;-34.932;138.594;2023-03-25T01:26:13;101465.84;;;22.90;52.92
53635;BME280;39542;-34.932;138.594;2023-03-25T01:26:47;101463.68;;;22.90;52.93
53635;BME280;39542;-34.932;138.594;2023-03-25T01:27:21;101463.98;;;22.91;52.96
53635;BME280;39542;-34.932;138.594;2023-03-25T01:27:56;101461.38;;;22.89;52.95
53635;BME280;39542;-34.932;138.594;2023-03-25T01:28:30;101461.10;;;22.87;52.93
53635;BME280;39542;-34.932;138.594;2023-03-25T01:29:06;101460.71;;;22.87;52.96
53635;BME280;39542;-34.932;138.594;2023-03-25T01:29:41;101459.28;;;22.87;52.96
53635;BME280;39542;-34.932;138.594;2023-03-25T01:30:16;101459.14;;;22.89;52.98
53635;BME280;39542;-34.932;138.594;2023-03-25T01:30:50;101458.57;;;22.89;53.05
53635;BME280;39542;-34.932;138.594;2023-03-25T01:31:24;101458.89;;;22.89;53.05
53635;BME280;39542;-34.932;138.594;2023-03-25T01:31:59;101459.49;;;22.88;53.00
53635;BME280;39542;-34.932;138.594;2023-03-25T01:32:33;101456.28;;;22.83;53.13
53635;BME280;39542;-34.932;138.594;2023-03-25T01:33:07;101457.47;;;22.85;53.08
53635;BME280;39542;-34.932;138.594;2023-03-25T01:33:42;101456.96;;;22.87;53.15
53635;BME280;39542;-34.932;138.594;2023-03-25T01:34:17;101456.21;;;22.88;52.97
53635;BME280;39542;-34.932;138.594;2023-03-25T01:34:52;101452.87;;;22.86;53.00
53635;BME280;39542;-34.932;138.594;2023-03-25T01:35:26;101449.73;;;22.88;52.93
53635;BME280;39542;-34.932;138.594;2023-03-25T01:36:02;101447.21;;;22.87;52.91
53635;BME280;39542;-34.932;138.594;2023-03-25T01:36:37;101443.91;;;22.86;52.93
53635;BME280;39542;-34.932;138.594;2023-03-25T01:37:11;101441.23;;;22.86;52.87
53635;BME280;39542;-34.932;138.594;2023-03-25T01:37:45;101436.14;;;22.87;52.87
53635;BME280;39542;-34.932;138.594;2023-03-25T01:38:20;101433.25;;;22.88;52.89
53635;BME280;39542;-34.932;138.594;2023-03-25T01:38:55;101431.07;;;22.84;52.99
53635;BME280;39542;-34.932;138.594;2023-03-25T01:39:31;101427.28;;;22.83;52.92
53635;BME280;39542;-34.932;138.594;2023-03-25T01:40:06;101420.91;;;22.86;53.10
53635;BME280;39542;-34.932;138.594;2023-03-25T01:40:40;101420.25;;;22.92;52.89
53635;BME280;39542;-34.932;138.594;2023-03-25T01:41:15;101421.80;;;22.96;52.86
53635;BME280;39542;-34.932;138.594;2023-03-25T01:41:51;101419.92;;;22.95;52.82
53635;BME280;39542;-34.932;138.594;2023-03-25T01:42:25;101415.64;;;22.92;52.89
53635;BME280;39542;-34.932;138.594;2023-03-25T01:43:00;101414.60;;;22.91;52.80
53635;BME280;39542;-34.932;138.594;2023-03-25T01:43:37;101415.77;;;22.92;52.71
53635;BME280;39542;-34.932;138.594;2023-03-25T01:45:14;101408.61;;;22.92;52.72
53635;BME280;39542;-34.932;138.594;2023-03-25T01:45:49;101395.77;;;22.94;52.60
53635;BME280;39542;-34.932;138.594;2023-03-25T01:46:25;101395.55;;;22.92;52.70
53635;BME280;39542;-34.932;138.594;2023-03-25T01:47:02;101390.36;;;22.91;52.78
53635;BME280;39542;-34.932;138.594;2023-03-25T01:47:38;101390.46;;;22.94;52.72
53635;BME280;39542;-34.932;138.594;2023-03-25T01:48:15;101388.30;;;22.96;52.84
53635;BME280;39542;-34.932;138.594;2023-03-25T01:48:51;101386.26;;;22.96;52.97
53635;BME280;39542;-34.932;138.594;2023-03-25T01:49:28;101384.45;;;22.93;52.89
53635;BME280;39542;-34.932;138.594;2023-03-25T01:50:05;101382.54;;;22.91;52.90
53635;BME280;39542;-34.932;138.594;2023-03-25T01:50:42;101377.62;;;22.97;52.99
53635;BME280;39542;-34.932;138.594;2023-03-25T01:51:20;101378.16;;;22.98;52.71
53635;BME280;39542;-34.932;138.594;2023-03-25T01:52:00;101378.85;;;22.97;52.72
53635;BME280;39542;-34.932;138.594;2023-03-25T01:52:36;101376.69;;;22.95;52.77
53635;BME280;39542;-34.932;138.594;2023-03-25T01:53:12;101376.27;;;22.98;52.76
53635;BME280;39542;-34.932;138.594;2023-03-25T01:53:47;101376.41;;;22.97;52.71
53635;BME280;39542;-34.932;138.594;2023-03-25T01:54:22;101374.01;;;22.95;52.77
53635;BME280;39542;-34.932;138.594;2023-03-25T01:54:57;101376.36;;;22.96;52.67
53635;BME280;39542;-34.932;138.594;2023-03-25T01:55:34;101377.75;;;22.97;52.66
53635;BME280;39542;-34.932;138.594;2023-03-25T01:56:12;101376.90;;;22.97;52.69
53635;BME280;39542;-34.932;138.594;2023-03-25T01:56:49;101376.10;;;22.95;52.67
53635;BME280;39542;-34.932;138.594;2023-03-25T01:57:25;101373.46;;;22.96;52.69
53635;BME280;39542;-34.932;138.594;2023-03-25T01:58:01;101369.83;;;22.98;52.77
53635;BME280;39542;-34.932;138.594;2023-03-25T01:58:38;101369.32;;;22.96;52.64
53635;BME280;39542;-34.932;138.594;2023-03-25T01:59:14;101369.12;;;22.92;52.81
53635;BME280;39542;-34.932;138.594;2023-03-25T01:59:52;101367.13;;;22.93;52.75
53635;BME280;39542;-34.932;138.594;2023-03-25T02:00:27;101362.59;;;22.94;52.76
53635;BME280;39542;-34.932;138.594;2023-03-25T02:01:02;101367.70;;;22.94;52.74
53635;BME280;39542;-34.932;138.594;2023-03-25T02:01:37;101363.38;;;22.98;52.66
53635;BME280;39542;-34.932;138.594;2023-03-25T02:02:13;101363.19;;;23.00;52.64
53635;BME280;39542;-34.932;138.594;2023-03-25T02:02:49;101367.04;;;22.98;52.99
53635;BME280;39542;-34.932;138.594;2023-03-25T02:03:25;101368.88;;;22.96;52.87
53635;BME280;39542;-34.932;138.594;2023-03-25T02:04:01;101368.65;;;22.96;52.78
53635;BME280;39542;-34.932;138.594;2023-03-25T02:04:42;101370.47;;;23.00;52.68
53635;BME280;39542;-34.932;138.594;2023-03-25T02:05:22;101370.70;;;22.98;52.58
53635;BME280;39542;-34.932;138.594;2023-03-25T02:06:02;101366.91;;;22.99;52.55
53635;BME280;39542;-34.932;138.594;2023-03-25T02:06:41;101363.36;;;23.02;52.51
53635;BME280;39542;-34.932;138.594;2023-03-25T02:07:16;101364.40;;;22.99;52.60
53635;BME280;39542;-34.932;138.594;2023-03-25T02:07:51;101361.33;;;23.02;52.53
53635;BME280;39542;-34.932;138.594;2023-03-25T02:08:27;101358.36;;;23.02;52.58
53635;BME280;39542;-34.932;138.594;2023-03-25T02:09:04;101362.39;;;23.01;52.54
53635;BME280;39542;-34.932;138.594;2023-03-25T02:09:39;101360.24;;;23.01;52.60
53635;BME280;39542;-34.932;138.594;2023-03-25T02:10:16;101359.44;;;23.01;52.61
53635;BME280;39542;-34.932;138.594;2023-03-25T02:10:51;101356.53;;;22.99;52.72
53635;BME280;39542;-34.932;138.594;2023-03-25T02:11:26;101357.79;;;23.00;52.65
53635;BME280;39542;-34.932;138.594;2023-03-25T02:12:00;101357.43;;;23.02;52.60
53635;BME280;39542;-34.932;138.594;2023-03-25T02:12:35;101357.40;;;23.03;52.68
53635;BME280;39542;-34.932;138.594;2023-03-25T02:13:09;101355.70;;;23.00;52.60
53635;BME280;39542;-34.932;138.594;2023-03-25T02:13:45;101356.64;;;22.99;52.71
53635;BME280;39542;-34.932;138.594;2023-03-25T02:14:21;101355.42;;;22.99;52.75
53635;BME280;39542;-34.932;138.594;2023-03-25T02:14:57;101353.92;;;23.01;52.60
53635;BME280;39542;-34.932;138.594;2023-03-25T02:15:42;101352.71;;;23.02;52.58
53635;BME280;39542;-34.932;138.594;2023-03-25T02:16:27;101350.56;;;23.04;52.53
53635;BME280;39542;-34.932;138.594;2023-03-25T02:17:15;101354.15;;;23.03;52.65
53635;BME280;39542;-34.932;138.594;2023-03-25T02:18:05;101350.05;;;23.01;52.88
53635;BME280;39542;-34.932;138.594;2023-03-25T02:18:46;101347.90;;;23.03;52.71
53635;BME280;39542;-34.932;138.594;2023-03-25T02:22:46;101338.04;;;23.06;52.62
53635;BME280;39542;-34.932;138.594;2023-03-25T02:27:32;101324.61;;;23.06;52.69
53635;BME280;39542;-34.932;138.594;2023-03-25T02:28:15;101321.36;;;23.03;52.76
53635;BME280;39542;-34.932;138.594;2023-03-25T02:28:56;101319.37;;;23.03;52.55
53635;BME280;39542;-34.932;138.594;2023-03-25T02:29:52;101319.35;;;23.06;52.68
53635;BME280;39542;-34.932;138.594;2023-03-25T02:31:13;101317.23;;;23.04;52.74
53635;BME280;39542;-34.932;138.594;2023-03-25T02:32:01;101318.39;;;23.03;52.67
53635;BME280;39542;-34.932;138.594;2023-03-25T02:32:59;101315.68;;;23.07;52.55
53635;BME280;39542;-34.932;138.594;2023-03-25T02:33:53;101309.18;;;23.08;52.47
53635;BME280;39542;-34.932;138.594;2023-03-25T02:34:42;101305.10;;;23.04;52.50
53635;BME280;39542;-34.932;138.594;2023-03-25T02:35:30;101304.13;;;23.07;52.66
53635;BME280;39542;-34.932;138.594;2023-03-25T02:37:01;101304.77;;;23.06;52.64
53635;BME280;39542;-34.932;138.594;2023-03-25T02:38:20;101304.00;;;23.06;52.51
53635;BME280;39542;-34.932;138.594;2023-03-25T02:39:00;101303.46;;;23.06;52.53
53635;BME280;39542;-34.932;138.594;2023-03-25T02:39:41;101300.93;;;23.06;52.61
53635;BME280;39542;-34.932;138.594;2023-03-25T02:40:19;101299.38;;;23.05;52.53
53635;BME280;39542;-34.932;138.594;2023-03-25T02:41:00;101299.43;;;23.05;52.75
53635;BME280;39542;-34.932;138.594;2023-03-25T02:41:42;101299.79;;;23.03;52.77
53635;BME280;39542;-34.932;138.594;2023-03-25T02:42:24;101296.93;;;23.09;52.55
53635;BME280;39542;-34.932;138.594;2023-03-25T02:43:03;101296.38;;;23.12;52.50
53635;BME280;39542;-34.932;138.594;2023-03-25T02:43:44;101294.88;;;23.12;52.60
53635;BME280;39542;-34.932;138.594;2023-03-25T02:44:28;101293.93;;;23.10;52.56
53635;BME280;39542;-34.932;138.594;2023-03-25T02:45:07;101292.93;;;23.08;52.47
53635;BME280;39542;-34.932;138.594;2023-03-25T02:45:48;101295.02;;;23.07;52.54
53635;BME280;39542;-34.932;138.594;2023-03-25T02:46:26;101290.60;;;23.09;52.52
53635;BME280;39542;-34.932;138.594;2023-03-25T02:47:06;101292.18;;;23.12;52.45
53635;BME280;39542;-34.932;138.594;2023-03-25T02:47:45;101292.18;;;23.12;52.43
53635;BME280;39542;-34.932;138.594;2023-03-25T02:48:24;101294.52;;;23.10;52.47
53635;BME280;39542;-34.932;138.594;2023-03-25T02:49:04;101294.99;;;23.13;52.56
53635;BME280;39542;-34.932;138.594;2023-03-25T02:49:43;101294.37;;;23.12;52.55
53635;BME280;39542;-34.932;138.594;2023-03-25T02:50:22;101294.84;;;23.11;52.55
53635;BME280;39542;-34.932;138.594;2023-03-25T02:51:02;101295.45;;;23.09;52.63
53635;BME280;39542;-34.932;138.594;2023-03-25T02:51:40;101293.23;;;23.10;52.78
53635;BME280;39542;-34.932;138.594;2023-03-25T02:52:19;101293.00;;;23.13;52.78
53635;BME280;39542;-34.932;138.594;2023-03-25T02:52:58;101292.65;;;23.15;52.74
53635;BME280;39542;-34.932;138.594;2023-03-25T02:53:36;101294.16;;;23.18;52.56
53635;BME280;39542;-34.932;138.594;2023-03-25T02:54:12;101289.50;;;23.16;52.53
53635;BME280;39542;-34.932;138.594;2023-03-25T02:54:50;101288.16;;;23.15;52.52
53635;BME280;39542;-34.932;138.594;2023-03-25T02:55:26;101284.57;;;23.11;52.55
53635;BME280;39542;-34.932;138.594;2023-03-25T02:56:05;101284.73;;;23.15;52.53
53635;BME280;39542;-34.932;138.594;2023-03-25T02:56:42;101283.00;;;23.15;52.49
53635;BME280;39542;-34.932;138.594;2023-03-25T02:57:20;101282.66;;;23.14;52.59
53635;BME280;39542;-34.932;138.594;2023-03-25T02:57:56;101284.72;;;23.14;52.81
53635;BME280;39542;-34.932;138.594;2023-03-25T02:58:32;101283.05;;;23.16;52.80
53635;BME280;39542;-34.932;138.594;2023-03-25T02:59:07;101284.16;;;23.15;52.70
53635;BME280;39542;-34.932;138.594;2023-03-25T02:59:42;101282.95;;;23.17;52.72
53635;BME280;39542;-34.932;138.594;2023-03-25T03:00:21;101281.91;;;23.19;52.67
53635;BME280;39542;-34.932;138.594;2023-03-25T03:00:56;101280.65;;;23.15;52.60
53635;BME280;39542;-34.932;138.594;2023-03-25T03:01:31;101278.77;;;23.12;52.57
53635;BME280;39542;-34.932;138.594;2023-03-25T03:02:08;101280.18;;;23.10;52.56
53635;BME280;39542;-34.932;138.594;2023-03-25T03:02:47;101280.70;;;23.16;52.57
53635;BME280;39542;-34.932;138.594;2023-03-25T03:03:24;101280.68;;;23.19;52.49
53635;BME280;39542;-34.932;138.594;2023-03-25T03:03:59;101281.38;;;23.17;52.57
53635;BME280;39542;-34.932;138.594;2023-03-25T03:04:43;101279.82;;;23.15;52.43
53635;BME280;39542;-34.932;138.594;2023-03-25T03:05:24;101276.21;;;23.13;52.56
53635;BME280;39542;-34.932;138.594;2023-03-25T03:06:00;101275.31;;;23.13;52.62
53635;BME280;39542;-34.932;138.594;2023-03-25T03:06:40;101274.21;;;23.17;52.48
53635;BME280;39542;-34.932;138.594;2023-03-25T03:07:20;101270.12;;;23.15;52.73
53635;BME280;39542;-34.932;138.594;2023-03-25T03:08:10;101271.32;;;23.16;52.59
53635;BME280;39542;-34.932;138.594;2023-03-25T03:09:00;101268.61;;;23.13;52.54
53635;BME280;39542;-34.932;138.594;2023-03-25T03:09:43;101269.51;;;23.18;52.67
53635;BME280;39542;-34.932;138.594;2023-03-25T03:10:22;101266.95;;;23.16;52.53
53635;BME280;39542;-34.932;138.594;2023-03-25T03:11:05;101265.10;;;23.15;52.57
53635;BME280;39542;-34.932;138.594;2023-03-25T03:11:49;101259.75;;;23.15;52.47
53635;BME280;39542;-34.932;138.594;2023-03-25T03:12:39;101258.23;;;23.13;52.54
53635;BME280;39542;-34.932;138.594;2023-03-25T03:13:24;101254.38;;;23.20;52.48
53635;BME280;39542;-34.932;138.594;2023-03-25T03:14:18;101251.07;;;23.20;52.48
53635;BME280;39542;-34.932;138.594;2023-03-25T03:15:04;101252.98;;;23.18;52.46
53635;BME280;39542;-34.932;138.594;2023-03-25T03:15:50;101248.29;;;23.17;52.45